createdAt,value
2017-05-26T00:00:39.464Z,101551.84
2017-05-26T00:03:05.853Z,101545.13
2017-05-26T00:05:32.210Z,101549.20
2017-05-26T00:07:58.556Z,101546.43
2017-05-26T00:10:24.884Z,101550.34
2017-05-26T00:12:51.220Z,101550.23
2017-05-26T00:15:17.566Z,101548.25
2017-05-26T00:17:43.918Z,101552.02
2017-05-26T00:20:10.252Z,101546.05
2017-05-26T00:22:36.589Z,101550.20
2017-05-26T00:25:02.923Z,101548.42
2017-05-26T00:27:29.249Z,101541.34
2017-05-26T00:29:55.653Z,101544.94
2017-05-26T00:32:21.998Z,101539.73
2017-05-26T00:34:48.337Z,101536.78
2017-05-26T00:37:14.693Z,101534.82
2017-05-26T00:39:41.031Z,101540.22
2017-05-26T00:42:07.373Z,101539.82
2017-05-26T00:44:33.730Z,101539.27
2017-05-26T00:47:00.074Z,101535.45
2017-05-26T00:49:26.522Z,101523.05
2017-05-26T00:51:52.845Z,101523.06
2017-05-26T00:54:19.154Z,101533.49
2017-05-26T00:56:45.492Z,101531.78
2017-05-26T00:59:11.890Z,101538.30
2017-05-26T01:01:38.232Z,101539.86
2017-05-26T01:04:04.601Z,101534.67
2017-05-26T01:06:30.945Z,101530.59
2017-05-26T01:08:57.308Z,101521.66
2017-05-26T01:11:23.712Z,101519.80
2017-05-26T01:13:50.076Z,101530.80
2017-05-26T01:16:16.418Z,101532.16
2017-05-26T01:18:42.764Z,101531.98
2017-05-26T01:21:09.115Z,101537.09
2017-05-26T01:23:35.451Z,101536.84
2017-05-26T01:26:01.806Z,101536.92
2017-05-26T01:28:28.135Z,101534.31
2017-05-26T01:30:55.219Z,101533.94
2017-05-26T01:33:22.180Z,101536.70
2017-05-26T01:35:48.535Z,101539.39
2017-05-26T01:38:14.961Z,101547.98
2017-05-26T01:40:41.306Z,101542.48
2017-05-26T01:43:07.711Z,101548.67
2017-05-26T01:45:34.095Z,101551.06
2017-05-26T01:48:00.468Z,101554.23
2017-05-26T01:50:26.829Z,101552.39
2017-05-26T01:52:53.281Z,101553.78
2017-05-26T01:55:19.631Z,101563.42
2017-05-26T01:57:46.003Z,101559.08
2017-05-26T02:00:12.402Z,101554.75
2017-05-26T02:02:38.738Z,101556.78
2017-05-26T02:05:05.071Z,101551.31
2017-05-26T02:07:31.433Z,101555.52
2017-05-26T02:09:57.784Z,101555.44
2017-05-26T02:12:24.134Z,101554.17
2017-05-26T02:14:50.506Z,101551.24
2017-05-26T02:17:16.831Z,101556.56
2017-05-26T02:19:43.217Z,101563.08
2017-05-26T02:22:09.567Z,101556.88
2017-05-26T02:24:35.905Z,101556.13
2017-05-26T02:27:02.269Z,101559.35
2017-05-26T02:29:28.624Z,101564.66
2017-05-26T02:31:54.995Z,101551.13
2017-05-26T02:34:21.314Z,101559.02
2017-05-26T02:36:47.669Z,101552.05
2017-05-26T02:39:13.990Z,101552.91
2017-05-26T02:41:40.380Z,101559.20
2017-05-26T02:44:06.707Z,101553.66
2017-05-26T02:46:33.048Z,101553.38
2017-05-26T02:48:59.468Z,101550.31
2017-05-26T02:51:25.853Z,101547.05
2017-05-26T02:53:52.192Z,101553.89
2017-05-26T02:56:18.534Z,101553.53
2017-05-26T02:58:44.874Z,101546.80
2017-05-26T03:01:11.237Z,101550.12
2017-05-26T03:03:37.575Z,101555.66
2017-05-26T03:06:03.903Z,101563.59
2017-05-26T03:08:30.244Z,101558.26
2017-05-26T03:10:56.576Z,101555.98
2017-05-26T03:13:22.935Z,101553.70
2017-05-26T03:15:49.295Z,101552.77
2017-05-26T03:18:15.652Z,101553.62
2017-05-26T03:20:41.981Z,101570.06
2017-05-26T03:23:08.303Z,101568.45
2017-05-26T03:25:34.640Z,101569.97
2017-05-26T03:28:01.005Z,101567.52
2017-05-26T03:30:27.357Z,101564.14
2017-05-26T03:32:53.698Z,101560.98
2017-05-26T03:35:20.091Z,101569.91
2017-05-26T03:37:46.475Z,101569.24
2017-05-26T03:40:12.829Z,101563.34
2017-05-26T03:42:39.177Z,101563.56
2017-05-26T03:45:05.612Z,101565.80
2017-05-26T03:47:31.932Z,101574.55
2017-05-26T03:49:58.274Z,101565.01
2017-05-26T03:52:24.640Z,101573.66
2017-05-26T03:54:51.100Z,101570.89
2017-05-26T03:57:17.460Z,101572.24
2017-05-26T03:59:43.771Z,101574.83
2017-05-26T04:02:10.126Z,101571.81
2017-05-26T04:04:36.488Z,101567.86
2017-05-26T04:07:02.827Z,101568.08
2017-05-26T04:09:29.171Z,101573.33
2017-05-26T04:11:55.509Z,101576.15
2017-05-26T04:14:21.844Z,101567.58
2017-05-26T04:16:48.193Z,101573.48
2017-05-26T04:19:14.515Z,101570.56
2017-05-26T04:21:40.865Z,101568.34
2017-05-26T04:24:07.212Z,101567.17
2017-05-26T04:26:33.553Z,101571.02
2017-05-26T04:28:59.902Z,101572.61
2017-05-26T04:31:26.370Z,101568.44
2017-05-26T04:33:52.706Z,101566.50
2017-05-26T04:36:19.059Z,101563.31
2017-05-26T04:38:45.426Z,101559.61
2017-05-26T04:41:11.829Z,101561.44
2017-05-26T04:43:38.191Z,101558.52
2017-05-26T04:46:04.553Z,101554.45
2017-05-26T04:48:30.925Z,101557.64
2017-05-26T04:50:57.322Z,101557.80
2017-05-26T04:53:23.693Z,101562.59
2017-05-26T04:55:50.045Z,101562.45
2017-05-26T04:58:16.387Z,101561.67
2017-05-26T05:00:42.732Z,101560.77
2017-05-26T05:03:09.104Z,101554.73
2017-05-26T05:05:35.466Z,101555.50
2017-05-26T05:08:01.801Z,101560.50
2017-05-26T05:10:28.167Z,101550.03
2017-05-26T05:12:54.495Z,101563.46
2017-05-26T05:15:20.822Z,101557.92
2017-05-26T05:17:47.163Z,101563.92
2017-05-26T05:20:13.527Z,101561.22
2017-05-26T05:22:39.877Z,101559.88
2017-05-26T05:25:06.201Z,101558.79
2017-05-26T05:27:32.541Z,101561.80
2017-05-26T05:29:58.886Z,101568.05
2017-05-26T05:32:25.250Z,101567.97
2017-05-26T05:34:51.605Z,101572.69
2017-05-26T05:37:17.988Z,101574.11
2017-05-26T05:39:44.342Z,101575.13
2017-05-26T05:42:10.675Z,101569.20
2017-05-26T05:44:36.995Z,101572.55
2017-05-26T05:47:03.335Z,101569.57
2017-05-26T05:49:29.681Z,101571.59
2017-05-26T05:51:56.017Z,101571.15
2017-05-26T05:54:22.337Z,101569.89
2017-05-26T05:56:48.712Z,101569.25
2017-05-26T05:59:15.042Z,101574.32
2017-05-26T06:01:41.409Z,101573.13
2017-05-26T06:04:07.739Z,101579.32
2017-05-26T06:06:34.077Z,101579.89
2017-05-26T06:09:00.413Z,101580.16
2017-05-26T06:11:26.747Z,101588.20
2017-05-26T06:13:53.073Z,101586.91
2017-05-26T06:16:19.464Z,101589.80
2017-05-26T06:18:45.788Z,101583.60
2017-05-26T06:21:12.140Z,101586.09
2017-05-26T06:23:38.483Z,101586.65
2017-05-26T06:26:04.798Z,101584.08
2017-05-26T06:28:31.130Z,101583.84
2017-05-26T06:30:57.466Z,101584.66
2017-05-26T06:33:23.800Z,101586.30
2017-05-26T06:35:50.118Z,101588.34
2017-05-26T06:38:16.482Z,101576.55
2017-05-26T06:40:42.811Z,101580.81
2017-05-26T06:43:09.176Z,101577.20
2017-05-26T06:45:35.518Z,101581.61
2017-05-26T06:48:01.869Z,101573.52
2017-05-26T06:50:28.187Z,101584.48
2017-05-26T06:52:54.581Z,101581.38
2017-05-26T06:55:20.930Z,101579.13
2017-05-26T06:57:47.263Z,101583.19
2017-05-26T07:00:13.609Z,101580.49
2017-05-26T07:02:39.934Z,101584.98
2017-05-26T07:05:06.275Z,101586.74
2017-05-26T07:07:32.631Z,101587.34
2017-05-26T07:09:59.030Z,101586.88
2017-05-26T07:12:25.360Z,101588.59
2017-05-26T07:14:51.690Z,101592.83
2017-05-26T07:17:18.066Z,101588.14
2017-05-26T07:19:44.382Z,101583.01
2017-05-26T07:22:10.718Z,101586.70
2017-05-26T07:24:37.085Z,101584.09
2017-05-26T07:27:03.424Z,101583.67
2017-05-26T07:29:29.786Z,101580.95
2017-05-26T07:31:56.148Z,101582.16
2017-05-26T07:34:22.514Z,101576.61
2017-05-26T07:36:48.878Z,101576.89
2017-05-26T07:39:15.215Z,101574.41
2017-05-26T07:41:41.537Z,101575.83
2017-05-26T07:44:07.910Z,101573.34
2017-05-26T07:46:34.273Z,101563.18
2017-05-26T07:49:00.662Z,101564.51
2017-05-26T07:51:27.060Z,101561.66
2017-05-26T07:53:53.465Z,101554.51
2017-05-26T07:56:19.860Z,101557.13
2017-05-26T07:58:46.273Z,101550.42
2017-05-26T08:01:12.720Z,101547.38
2017-05-26T08:03:39.114Z,101555.81
2017-05-26T08:06:05.539Z,101549.57
2017-05-26T08:08:31.927Z,101550.28
2017-05-26T08:10:58.315Z,101557.20
2017-05-26T08:13:24.735Z,101557.16
2017-05-26T08:15:51.115Z,101551.08
2017-05-26T08:18:17.517Z,101544.37
2017-05-26T08:20:43.887Z,101548.57
2017-05-26T08:23:10.266Z,101551.08
2017-05-26T08:25:36.709Z,101550.16
2017-05-26T08:28:03.112Z,101543.80
2017-05-26T08:30:29.503Z,101545.72
2017-05-26T08:32:55.872Z,101547.06
2017-05-26T08:35:22.257Z,101535.94
2017-05-26T08:37:48.663Z,101541.95
2017-05-26T08:40:15.058Z,101537.91
2017-05-26T08:42:41.440Z,101535.84
2017-05-26T08:45:07.882Z,101535.84
2017-05-26T08:47:34.287Z,101536.50
2017-05-26T08:50:00.689Z,101532.53
2017-05-26T08:52:27.114Z,101529.53
2017-05-26T08:54:53.522Z,101529.75
2017-05-26T08:57:19.925Z,101531.89
2017-05-26T08:59:46.336Z,101527.27
2017-05-26T09:02:12.728Z,101526.53
2017-05-26T09:04:39.118Z,101526.93
2017-05-26T09:07:05.500Z,101528.47
2017-05-26T09:09:31.863Z,101521.97
2017-05-26T09:11:58.246Z,101512.58
2017-05-26T09:14:24.649Z,101510.00
2017-05-26T09:16:51.063Z,101515.35
2017-05-26T09:19:17.458Z,101509.55
2017-05-26T09:21:43.853Z,101507.61
2017-05-26T09:24:10.239Z,101513.72
2017-05-26T09:26:36.670Z,101508.31
2017-05-26T09:29:03.101Z,101509.86
2017-05-26T09:31:29.584Z,101512.91
2017-05-26T09:33:55.973Z,101512.84
2017-05-26T09:36:22.364Z,101505.17
2017-05-26T09:38:48.770Z,101503.36
2017-05-26T09:41:15.186Z,101500.62
2017-05-26T09:43:41.598Z,101499.17
2017-05-26T09:46:08.036Z,101502.42
2017-05-26T09:48:34.494Z,101503.14
2017-05-26T09:51:00.892Z,101498.63
2017-05-26T09:53:27.317Z,101494.83
2017-05-26T09:55:53.733Z,101493.20
2017-05-26T09:58:20.188Z,101488.92
2017-05-26T10:00:46.586Z,101489.68
2017-05-26T10:03:12.965Z,101490.93
2017-05-26T10:05:39.373Z,101485.45
2017-05-26T10:08:05.784Z,101487.01
2017-05-26T10:10:32.197Z,101485.38
2017-05-26T10:12:58.593Z,101486.66
2017-05-26T10:15:25.010Z,101479.30
2017-05-26T10:17:51.415Z,101474.14
2017-05-26T10:20:17.803Z,101476.11
2017-05-26T10:22:44.227Z,101478.02
2017-05-26T10:25:10.650Z,101475.03
2017-05-26T10:27:37.066Z,101474.86
2017-05-26T10:30:03.517Z,101476.30
2017-05-26T10:32:29.909Z,101475.67
2017-05-26T10:34:56.340Z,101478.38
2017-05-26T10:37:22.760Z,101469.33
2017-05-26T10:39:49.201Z,101469.56
2017-05-26T10:42:15.621Z,101461.29
2017-05-26T10:44:42.061Z,101452.79
2017-05-26T10:47:08.472Z,101454.23
2017-05-26T10:49:35.155Z,101458.69
2017-05-26T10:52:01.563Z,101455.27
2017-05-26T10:54:32.925Z,101458.22
2017-05-26T10:57:02.783Z,101450.13
2017-05-26T11:12:37.332Z,101446.30
2017-05-26T11:15:04.397Z,101438.61
2017-05-26T11:17:31.453Z,101433.27
2017-05-26T11:19:57.899Z,101431.75
2017-05-26T11:22:24.311Z,101428.97
2017-05-26T11:24:50.708Z,101421.81
2017-05-26T11:27:17.153Z,101417.93
2017-05-26T11:29:43.555Z,101418.69
2017-05-26T11:32:10.677Z,101422.97
2017-05-26T11:34:37.111Z,101419.91
2017-05-26T11:37:03.523Z,101409.92
2017-05-26T11:39:30.560Z,101410.71
2017-05-26T11:41:57.018Z,101406.13
2017-05-26T11:44:24.084Z,101403.77
2017-05-26T11:46:50.490Z,101396.64
2017-05-26T11:49:16.896Z,101396.92
2017-05-26T11:51:43.328Z,101390.38
2017-05-26T11:54:09.737Z,101389.91
2017-05-26T11:56:36.450Z,101392.92
2017-05-26T11:59:02.883Z,101386.37
2017-05-26T12:01:29.268Z,101377.47
2017-05-26T12:03:55.667Z,101380.98
2017-05-26T12:06:22.117Z,101375.02
2017-05-26T12:08:48.495Z,101365.56
2017-05-26T12:11:14.965Z,101362.48
2017-05-26T12:13:41.371Z,101369.16
2017-05-26T12:16:07.771Z,101367.41
2017-05-26T12:18:35.041Z,101374.45
2017-05-26T12:21:01.478Z,101363.97
2017-05-26T12:23:27.928Z,101363.36
2017-05-26T12:25:54.536Z,101354.83
2017-05-26T12:28:21.026Z,101349.52
2017-05-26T12:30:47.476Z,101350.45
2017-05-26T12:33:13.840Z,101353.46
2017-05-26T12:35:40.302Z,101339.94
2017-05-26T12:38:06.762Z,101341.48
2017-05-26T12:40:33.155Z,101341.91
2017-05-26T12:42:59.545Z,101344.44
2017-05-26T12:45:25.947Z,101346.27
2017-05-26T12:47:52.338Z,101348.27
2017-05-26T12:50:18.810Z,101336.75
2017-05-26T12:52:45.234Z,101336.39
2017-05-26T12:55:11.630Z,101330.35
2017-05-26T12:57:38.024Z,101327.11
2017-05-26T13:00:04.913Z,101327.59
2017-05-26T13:02:31.333Z,101330.89
2017-05-26T13:04:58.149Z,101323.95
2017-05-26T13:07:28.024Z,101327.03
2017-05-26T13:09:54.471Z,101322.97
2017-05-26T13:12:23.385Z,101316.49
2017-05-26T13:14:49.956Z,101312.94
2017-05-26T13:17:16.340Z,101308.14
2017-05-26T13:19:42.715Z,101306.77
2017-05-26T13:22:09.122Z,101307.25
2017-05-26T13:24:35.516Z,101305.09
2017-05-26T13:27:01.916Z,101300.16
2017-05-26T13:29:28.300Z,101298.61
2017-05-26T13:31:54.741Z,101297.02
2017-05-26T13:34:22.518Z,101291.40
2017-05-26T13:36:48.908Z,101284.99
2017-05-26T13:39:15.320Z,101286.69
2017-05-26T13:41:41.798Z,101285.53
2017-05-26T13:44:08.207Z,101274.75
2017-05-26T13:46:36.268Z,101271.23
2017-05-26T13:49:02.900Z,101269.13
2017-05-26T13:51:29.340Z,101263.02
2017-05-26T13:53:56.288Z,101264.57
2017-05-26T13:56:22.694Z,101256.12
2017-05-26T13:58:49.126Z,101254.91
2017-05-26T14:01:15.528Z,101259.27
2017-05-26T14:03:41.908Z,101259.03
2017-05-26T14:06:08.302Z,101247.89
2017-05-26T14:08:34.726Z,101254.22
2017-05-26T14:11:01.176Z,101255.20
2017-05-26T14:19:09.370Z,101250.95
2017-05-26T14:21:45.142Z,101250.03
2017-05-26T14:24:11.563Z,101246.80
2017-05-26T14:26:44.726Z,101243.28
2017-05-26T14:29:16.396Z,101237.81
2017-05-26T14:31:42.971Z,101239.19
2017-05-26T14:34:09.343Z,101232.10
2017-05-26T14:36:35.771Z,101237.78
2017-05-26T14:39:02.278Z,101234.97
2017-05-26T14:41:28.696Z,101235.77
2017-05-26T14:43:55.676Z,101227.74
2017-05-26T14:46:22.129Z,101220.97
2017-05-26T14:48:49.303Z,101219.57
2017-05-26T14:51:15.704Z,101217.76
2017-05-26T14:53:42.113Z,101220.47
2017-05-26T14:56:08.795Z,101217.09
2017-05-26T14:58:36.044Z,101221.83
2017-05-26T15:01:02.614Z,101212.66
2017-05-26T15:03:29.040Z,101221.66
2017-05-26T15:05:55.461Z,101214.86
2017-05-26T15:08:21.862Z,101212.92
2017-05-26T15:10:48.270Z,101219.66
2017-05-26T15:13:14.680Z,101216.10
2017-05-26T15:15:41.219Z,101213.73
2017-05-26T15:18:07.904Z,101212.70
2017-05-26T15:20:34.318Z,101216.50
2017-05-26T15:23:00.720Z,101206.36
2017-05-26T15:25:27.112Z,101210.45
2017-05-26T15:27:53.523Z,101208.45
2017-05-26T15:30:19.942Z,101198.35
2017-05-26T15:32:46.369Z,101199.62
2017-05-26T15:35:12.815Z,101194.34
2017-05-26T15:37:39.475Z,101200.28
2017-05-26T15:40:06.032Z,101197.35
2017-05-26T15:42:33.183Z,101196.83
2017-05-26T15:44:59.585Z,101189.89
2017-05-26T15:47:26.483Z,101184.97
2017-05-26T15:49:53.031Z,101192.32
2017-05-26T15:52:19.451Z,101186.84
2017-05-26T15:54:45.827Z,101185.28
2017-05-26T15:57:12.236Z,101188.77
2017-05-26T15:59:38.663Z,101182.00
2017-05-26T16:02:05.082Z,101182.39
2017-05-26T16:04:31.678Z,101175.99
2017-05-26T16:06:58.133Z,101173.16
2017-05-26T16:09:24.573Z,101173.87
2017-05-26T16:11:50.943Z,101169.56
2017-05-26T16:14:17.335Z,101167.81
2017-05-26T16:16:43.820Z,101171.83
2017-05-26T16:19:10.204Z,101166.48
2017-05-26T16:21:36.588Z,101175.20
2017-05-26T16:24:02.994Z,101168.56
2017-05-26T16:26:29.609Z,101165.61
2017-05-26T16:28:55.995Z,101159.20
2017-05-26T16:31:22.330Z,101157.34
2017-05-26T16:33:48.679Z,101160.88
2017-05-26T16:36:15.077Z,101158.61
2017-05-26T16:38:41.464Z,101164.30
2017-05-26T16:41:07.817Z,101163.24
2017-05-26T16:43:34.206Z,101152.74
2017-05-26T16:46:00.548Z,101157.05
2017-05-26T16:48:26.887Z,101158.06
2017-05-26T16:50:53.242Z,101157.19
2017-05-26T16:53:19.616Z,101158.33
2017-05-26T16:55:45.965Z,101154.38
2017-05-26T16:58:12.298Z,101155.28
2017-05-26T17:00:38.630Z,101153.36
2017-05-26T17:03:05.011Z,101147.02
2017-05-26T17:05:31.418Z,101151.69
2017-05-26T17:07:57.748Z,101153.85
2017-05-26T17:10:24.079Z,101154.91
2017-05-26T17:12:50.473Z,101156.48
2017-05-26T17:15:16.838Z,101150.75
2017-05-26T17:17:43.185Z,101150.24
2017-05-26T17:20:09.539Z,101149.03
2017-05-26T17:22:35.857Z,101155.84
2017-05-26T17:25:02.210Z,101147.91
2017-05-26T17:27:28.610Z,101149.77
2017-05-26T17:29:54.997Z,101148.25
2017-05-26T17:32:21.339Z,101140.86
2017-05-26T17:34:47.763Z,101150.87
2017-05-26T17:37:14.130Z,101153.70
2017-05-26T17:39:40.483Z,101146.69
2017-05-26T17:42:06.832Z,101150.33
2017-05-26T17:44:33.185Z,101149.41
2017-05-26T17:46:59.544Z,101149.83
2017-05-26T17:49:25.966Z,101152.13
2017-05-26T17:51:52.361Z,101152.91
2017-05-26T17:54:18.753Z,101149.42
2017-05-26T17:56:45.151Z,101145.70
2017-05-26T17:59:11.561Z,101152.37
2017-05-26T18:01:37.882Z,101148.34
2017-05-26T18:04:04.308Z,101147.14
2017-05-26T18:06:30.702Z,101140.97
2017-05-26T18:08:57.059Z,101146.83
2017-05-26T18:11:23.448Z,101140.58
2017-05-26T18:13:49.787Z,101147.49
2017-05-26T18:16:16.108Z,101140.32
2017-05-26T18:18:42.491Z,101143.79
2017-05-26T18:21:09.236Z,101140.05
2017-05-26T18:23:35.664Z,101136.88
2017-05-26T18:26:02.037Z,101142.48
2017-05-26T18:28:28.516Z,101139.09
2017-05-26T18:30:54.893Z,101137.30
2017-05-26T18:33:21.254Z,101141.69
2017-05-26T18:35:47.599Z,101146.63
2017-05-26T18:38:14.639Z,101143.32
2017-05-26T18:40:41.122Z,101144.63
2017-05-26T18:43:07.466Z,101157.14
2017-05-26T18:45:33.816Z,101153.39
2017-05-26T18:48:00.487Z,101151.31
2017-05-26T18:50:26.882Z,101151.42
2017-05-26T18:52:53.203Z,101152.22
2017-05-26T18:55:19.671Z,101155.83
2017-05-26T18:57:46.077Z,101163.63
2017-05-26T19:00:12.540Z,101161.25
2017-05-26T19:02:38.940Z,101163.58
2017-05-26T19:05:05.280Z,101167.99
2017-05-26T19:07:31.628Z,101165.86
2017-05-26T19:09:58.003Z,101171.33
2017-05-26T19:12:24.373Z,101173.08
2017-05-26T19:14:50.731Z,101170.73
2017-05-26T19:17:17.157Z,101174.03
2017-05-26T19:19:43.522Z,101177.09
2017-05-26T19:22:09.889Z,101175.34
2017-05-26T19:24:36.278Z,101178.55
2017-05-26T19:27:02.615Z,101174.98
2017-05-26T19:29:29.011Z,101173.34
2017-05-26T19:31:55.363Z,101179.52
2017-05-26T19:34:21.691Z,101178.25
2017-05-26T19:36:48.110Z,101177.76
2017-05-26T19:39:14.451Z,101184.23
2017-05-26T19:41:40.781Z,101180.89
2017-05-26T19:44:07.141Z,101182.98
2017-05-26T19:46:33.478Z,101186.17
2017-05-26T19:48:59.803Z,101186.02
2017-05-26T19:51:26.135Z,101185.00
2017-05-26T19:53:52.497Z,101188.50
2017-05-26T19:56:18.933Z,101192.27
2017-05-26T19:58:45.290Z,101196.25
2017-05-26T20:01:11.629Z,101202.87
2017-05-26T20:03:37.961Z,101205.16
2017-05-26T20:06:05.118Z,101206.44
2017-05-26T20:08:31.501Z,101210.63
2017-05-26T20:10:57.882Z,101210.79
2017-05-26T20:13:24.306Z,101208.41
2017-05-26T20:15:50.673Z,101210.42
2017-05-26T20:18:17.003Z,101206.78
2017-05-26T20:20:43.833Z,101207.23
2017-05-26T20:23:10.159Z,101209.45
2017-05-26T20:25:36.874Z,101213.17
2017-05-26T20:28:03.646Z,101210.49
2017-05-26T20:30:30.119Z,101211.94
2017-05-26T20:32:56.595Z,101212.14
2017-05-26T20:35:23.013Z,101211.86
2017-05-26T20:37:49.428Z,101213.60
2017-05-26T20:40:15.768Z,101220.27
2017-05-26T20:42:42.148Z,101212.42
2017-05-26T20:45:08.491Z,101213.32
2017-05-26T20:47:34.938Z,101210.52
2017-05-26T20:50:01.295Z,101214.19
2017-05-26T20:52:27.614Z,101217.31
2017-05-26T20:54:53.982Z,101211.73
2017-05-26T20:57:20.358Z,101213.63
2017-05-26T20:59:46.704Z,101213.08
2017-05-26T21:02:13.034Z,101217.11
2017-05-26T21:04:39.352Z,101212.02
2017-05-26T21:07:05.703Z,101215.76
2017-05-26T21:09:32.032Z,101214.64
2017-05-26T21:11:58.379Z,101218.34
2017-05-26T21:14:24.717Z,101214.97
2017-05-26T21:16:51.044Z,101213.53
2017-05-26T21:19:17.422Z,101220.25
2017-05-26T21:21:43.764Z,101210.35
2017-05-26T21:24:10.120Z,101209.59
2017-05-26T21:26:36.466Z,101214.49
2017-05-26T21:29:02.802Z,101211.12
2017-05-26T21:31:29.160Z,101217.09
2017-05-26T21:33:55.566Z,101215.00
2017-05-26T21:36:21.909Z,101211.06
2017-05-26T21:38:48.337Z,101220.77
2017-05-26T21:41:14.673Z,101227.86
2017-05-26T21:43:41.130Z,101228.00
2017-05-26T21:46:07.492Z,101234.52
2017-05-26T21:48:33.909Z,101230.20
2017-05-26T21:51:00.246Z,101232.72
2017-05-26T21:53:26.593Z,101233.05
2017-05-26T21:55:53.351Z,101228.41
2017-05-26T21:58:19.707Z,101233.00
2017-05-26T22:00:46.163Z,101238.55
2017-05-26T22:03:12.533Z,101239.20
2017-05-26T22:05:38.985Z,101237.25
2017-05-26T22:08:05.516Z,101234.80
2017-05-26T22:10:32.157Z,101232.63
2017-05-26T22:12:58.603Z,101233.33
2017-05-26T22:15:24.956Z,101234.05
2017-05-26T22:17:51.321Z,101234.75
2017-05-26T22:20:17.675Z,101234.91
2017-05-26T22:22:44.041Z,101238.56
2017-05-26T22:25:10.489Z,101238.33
2017-05-26T22:27:36.824Z,101231.17
2017-05-26T22:30:03.206Z,101229.11
2017-05-26T22:32:29.581Z,101229.10
2017-05-26T22:34:55.934Z,101239.41
2017-05-26T22:37:22.432Z,101236.14
2017-05-26T22:39:48.866Z,101231.90
2017-05-26T22:42:15.203Z,101229.22
2017-05-26T22:44:41.555Z,101233.41
2017-05-26T22:47:07.982Z,101232.90
2017-05-26T22:49:34.348Z,101236.73
2017-05-26T22:52:00.702Z,101237.42
2017-05-26T22:54:27.071Z,101233.84
2017-05-26T22:56:53.460Z,101232.03
2017-05-26T22:59:19.839Z,101230.25
2017-05-26T23:01:46.164Z,101229.78
2017-05-26T23:04:12.544Z,101225.72
2017-05-26T23:06:38.892Z,101228.88
2017-05-26T23:09:05.273Z,101234.05
2017-05-26T23:11:31.630Z,101230.45
2017-05-26T23:13:57.971Z,101227.40
2017-05-26T23:16:24.329Z,101226.15
2017-05-26T23:18:50.659Z,101225.41
2017-05-26T23:21:17.011Z,101215.08
2017-05-26T23:23:43.414Z,101218.20
2017-05-26T23:26:09.744Z,101217.02
2017-05-26T23:28:36.093Z,101215.34
2017-05-26T23:31:02.449Z,101214.04
2017-05-26T23:33:29.110Z,101217.09
2017-05-26T23:35:55.552Z,101210.16
2017-05-26T23:38:21.900Z,101212.06
2017-05-26T23:40:48.260Z,101205.45
2017-05-26T23:43:14.655Z,101198.08
2017-05-26T23:45:41.018Z,101200.99
2017-05-26T23:48:07.387Z,101199.75
2017-05-26T23:50:33.788Z,101200.47
2017-05-26T23:53:00.133Z,101196.93
2017-05-26T23:55:26.953Z,101195.20
2017-05-26T23:57:53.358Z,101189.51
